Terminal Aerodrome Forecast
Issued by NWS

Home | Current Version | Previous Version | Graphics & Text | Print | Product List | Glossary On
Versions: 1 2 3 4 5 6 7 8 9 10 11 12
648
FTUS43 KABR 202322
TAFATY
TAF
KATY 202322Z 2100/2124 16010KT P6SM OVC200
     FM210500 16005KT P6SM OVC110
     FM212200 15008KT P6SM SCT140=

USA.gov is the U.S. government's official web portal to all federal, state and local government web resources and services.